Time;durP1;ratioP1;P1;durP2;ratioP2;P2;SDS_P1;SDS_P2;PMS_P1;PMS_P2;Temp;Humidity;BMP_temperature;BMP_pressure;BME280_temperature;BME280_humidity;BME280_pressure;Samples;Min_cycle;Max_cycle;Signal;HPM_P1;HPM_P2
2023/02/28 00:01:06;;;;;;;;;27.00;27.00;;;;;5.25;42.38;102179.09;5019348;28;45254;-62
2023/02/28 00:03:34;;;;;;;;;32.25;31.00;;;;;5.24;42.13;102171.22;5017761;28;45437;-62
2023/02/28 00:06:01;;;;;;;;;28.00;26.75;;;;;5.21;42.23;102179.84;5019282;28;45231;-62
2023/02/28 00:08:26;;;;;;;;;28.25;26.00;;;;;5.19;42.32;102171.06;5017320;28;47323;-62
2023/02/28 00:10:52;;;;;;;;;31.00;29.75;;;;;5.17;42.26;102178.84;5034207;28;45339;-62
2023/02/28 00:13:17;;;;;;;;;29.75;29.50;;;;;5.15;42.57;102175.31;5018988;28;45646;-62
2023/02/28 00:15:43;;;;;;;;;33.00;27.50;;;;;5.14;42.18;102172.66;5005290;28;45382;-62
2023/02/28 00:18:09;;;;;;;;;31.00;27.25;;;;;5.12;42.77;102166.50;5014662;28;46107;-62
2023/02/28 00:20:34;;;;;;;;;29.25;28.00;;;;;5.11;42.30;102176.06;5018971;28;45309;-62
2023/02/28 00:22:59;;;;;;;;;30.00;25.75;;;;;5.07;42.71;102175.91;5017480;28;45322;-62
2023/02/28 00:25:25;;;;;;;;;25.00;23.75;;;;;5.07;42.61;102170.69;5018822;28;45313;-62
2023/02/28 00:27:51;;;;;;;;;28.75;23.75;;;;;5.06;42.65;102177.63;5018566;28;45409;-62
2023/02/28 00:30:19;;;;;;;;;22.25;21.75;;;;;5.04;42.59;102180.19;5018787;28;45219;-62
2023/02/28 00:32:45;;;;;;;;;27.75;24.50;;;;;4.99;42.78;102183.47;5018789;28;45246;-62
2023/02/28 00:35:11;;;;;;;;;27.50;20.75;;;;;5.02;42.52;102178.38;5018763;28;45208;-62
2023/02/28 00:37:37;;;;;;;;;30.00;28.50;;;;;4.99;42.74;102186.09;5018301;28;45345;-62
2023/02/28 00:40:06;;;;;;;;;28.75;25.50;;;;;5.00;42.87;102193.06;5018555;28;45785;-62
2023/02/28 00:42:33;;;;;;;;;25.50;23.50;;;;;4.97;42.82;102200.78;5005327;27;45218;-62
2023/02/28 00:44:59;;;;;;;;;24.25;21.25;;;;;4.96;43.30;102204.25;5018680;28;45263;-62
2023/02/28 00:47:25;;;;;;;;;24.00;21.75;;;;;4.93;42.68;102193.69;5016482;28;46610;-62
2023/02/28 00:49:50;;;;;;;;;25.25;24.25;;;;;4.93;42.75;102197.22;5018528;28;45164;-62
2023/02/28 00:52:16;;;;;;;;;26.75;23.25;;;;;4.93;42.91;102199.81;5018364;28;45160;-62
2023/02/28 00:54:41;;;;;;;;;22.00;22.00;;;;;4.90;42.88;102191.88;5018713;28;45385;-62
2023/02/28 00:57:06;;;;;;;;;26.00;21.25;;;;;4.90;42.78;102197.09;5018266;28;45401;-62
2023/02/28 00:59:32;;;;;;;;;24.75;23.00;;;;;4.87;42.64;102197.88;5018507;28;45291;-62
2023/02/28 01:01:57;;;;;;;;;24.25;23.00;;;;;4.86;42.87;102203.91;5018374;28;45427;-62
2023/02/28 01:04:22;;;;;;;;;28.00;25.00;;;;;4.85;42.77;102202.16;5018568;28;45265;-62
2023/02/28 01:06:48;;;;;;;;;26.00;24.75;;;;;4.84;42.64;102205.63;5017950;28;45380;-62
2023/02/28 01:09:13;;;;;;;;;30.75;25.25;;;;;4.84;42.98;102209.91;5033517;28;45260;-62
2023/02/28 01:11:41;;;;;;;;;28.25;24.75;;;;;4.76;43.35;102195.78;5018560;28;45263;-62
2023/02/28 01:14:07;;;;;;;;;23.50;22.50;;;;;4.81;43.17;102210.69;5017698;28;45463;-62
2023/02/28 01:16:32;;;;;;;;;26.00;23.00;;;;;4.77;43.11;102203.63;5000712;28;45207;-62
2023/02/28 01:18:58;;;;;;;;;25.75;22.00;;;;;4.75;43.15;102207.88;5018018;28;45314;-62
2023/02/28 01:21:23;;;;;;;;;21.75;19.00;;;;;4.76;43.03;102209.66;5018246;28;45471;-62
2023/02/28 01:23:49;;;;;;;;;24.50;21.25;;;;;4.76;43.15;102219.22;5033313;28;46092;-62
2023/02/28 01:26:17;;;;;;;;;20.00;19.50;;;;;4.72;43.31;102213.88;5017970;28;45203;-62
2023/02/28 01:28:43;;;;;;;;;20.50;20.00;;;;;4.69;42.90;102207.69;5018045;28;45282;-62
2023/02/28 01:31:09;;;;;;;;;26.75;23.00;;;;;4.66;43.00;102205.88;5018247;28;45396;-62
2023/02/28 01:33:35;;;;;;;;;23.50;22.50;;;;;4.69;43.33;102210.28;5018104;28;45464;-62
2023/02/28 01:36:06;;;;;;;;;23.75;23.25;;;;;4.62;43.17;102200.53;5017783;28;46389;-62
2023/02/28 01:38:33;;;;;;;;;19.50;17.75;;;;;4.64;43.02;102206.66;5017741;28;45437;-62
2023/02/28 01:40:58;;;;;;;;;20.00;20.00;;;;;4.62;43.07;102198.78;4997395;27;45465;-62
2023/02/28 01:43:25;;;;;;;;;24.75;22.50;;;;;4.62;43.40;102206.59;5016739;28;45357;-62
2023/02/28 01:45:52;;;;;;;;;25.25;23.00;;;;;4.59;43.22;102203.00;5017372;28;46111;-62
2023/02/28 01:48:21;;;;;;;;;23.75;21.00;;;;;4.61;43.38;102207.44;5007097;28;45288;-62
2023/02/28 01:50:47;;;;;;;;;22.00;21.50;;;;;4.60;43.05;102199.56;5015075;28;45310;-62
2023/02/28 01:53:18;;;;;;;;;23.25;21.75;;;;;4.50;43.08;102193.16;5017264;28;45521;-62
2023/02/28 01:55:47;;;;;;;;;21.50;20.25;;;;;4.55;43.24;102199.41;5016998;28;45319;-62
2023/02/28 01:58:13;;;;;;;;;21.75;20.25;;;;;4.56;43.13;102206.41;5016448;28;45375;-63
2023/02/28 02:00:40;;;;;;;;;22.25;20.00;;;;;4.51;43.51;102195.81;5015557;28;45486;-62
2023/02/28 02:03:09;;;;;;;;;22.00;20.50;;;;;4.53;43.17;102194.16;5017627;28;45464;-62
2023/02/28 02:05:37;;;;;;;;;20.50;20.50;;;;;4.47;43.38;102199.16;5017493;28;45993;-62
2023/02/28 02:08:05;;;;;;;;;18.75;17.25;;;;;4.50;42.87;102203.56;5017314;28;45433;-62
2023/02/28 02:10:35;;;;;;;;;22.75;19.50;;;;;4.48;43.09;102200.94;5017791;28;45279;-62
2023/02/28 02:13:22;;;;;;;;;19.50;17.00;;;;;4.45;43.26;102200.81;5017488;28;45177;-62
2023/02/28 02:16:24;;;;;;;;;21.50;18.50;;;;;4.43;43.15;102191.19;5003122;28;45329;-62
2023/02/28 02:19:02;;;;;;;;;28.75;24.25;;;;;4.39;43.05;102192.81;5006016;28;45257;-62
2023/02/28 02:21:36;;;;;;;;;15.25;15.25;;;;;4.38;43.42;102193.66;5017694;28;45311;-62
2023/02/28 02:24:24;;;;;;;;;23.50;22.50;;;;;4.36;43.48;102184.88;5017216;28;45299;-62
2023/02/28 02:27:18;;;;;;;;;22.50;18.75;;;;;4.34;43.24;102189.13;5017437;28;45373;-62
2023/02/28 02:30:12;;;;;;;;;22.75;17.25;;;;;4.29;43.36;102172.47;5017013;28;45382;-62
2023/02/28 02:32:53;;;;;;;;;26.00;23.25;;;;;4.30;43.58;102184.66;5017473;28;45341;-62
2023/02/28 02:35:35;;;;;;;;;25.00;23.50;;;;;4.27;43.67;102182.84;5017484;28;45216;-62
2023/02/28 02:38:08;;;;;;;;;20.75;20.25;;;;;4.26;43.62;102177.59;5016665;28;45347;-62
2023/02/28 02:40:52;;;;;;;;;23.75;21.25;;;;;4.20;43.69;102167.84;5015606;28;45356;-62
2023/02/28 02:43:41;;;;;;;;;24.00;20.50;;;;;4.23;43.95;102183.59;5027871;28;45340;-62
2023/02/28 02:46:14;;;;;;;;;23.75;21.75;;;;;4.19;43.60;102176.50;5015699;28;45425;-62
2023/02/28 02:48:44;;;;;;;;;18.25;16.25;;;;;4.22;43.37;102176.59;5016789;28;46489;-62
2023/02/28 02:51:15;;;;;;;;;28.75;21.25;;;;;4.17;43.41;102175.56;5017300;28;45287;-62
2023/02/28 02:53:49;;;;;;;;;21.25;20.00;;;;;4.18;43.79;102174.72;5016822;28;45442;-62
2023/02/28 02:56:18;;;;;;;;;21.25;20.00;;;;;4.10;43.86;102165.75;5017197;28;45256;-62
2023/02/28 02:58:44;;;;;;;;;25.00;19.50;;;;;4.15;43.32;102172.00;5016553;28;45290;-62
2023/02/28 03:01:27;;;;;;;;;26.00;22.25;;;;;4.11;43.52;102173.59;5016900;28;45838;-62
2023/02/28 03:03:57;;;;;;;;;23.50;22.50;;;;;4.10;43.54;102166.66;5016913;28;45303;-61
2023/02/28 03:06:22;;;;;;;;;22.75;19.00;;;;;4.10;43.50;102173.56;5016983;28;45374;-62
2023/02/28 03:08:48;;;;;;;;;27.00;22.00;;;;;4.01;43.39;102161.09;5016243;28;45298;-62
2023/02/28 03:11:15;;;;;;;;;21.25;19.25;;;;;4.04;43.55;102166.44;5019346;28;45263;-62
2023/02/28 03:14:10;;;;;;;;;21.50;20.25;;;;;4.05;43.36;102173.38;5019677;28;45345;-62
2023/02/28 03:16:58;;;;;;;;;23.50;20.50;;;;;3.95;43.80;102158.28;5012654;28;45363;-62
2023/02/28 03:19:41;;;;;;;;;23.00;22.25;;;;;4.02;43.72;102173.28;5051463;28;48308;-62
2023/02/28 03:22:17;;;;;;;;;23.50;21.75;;;;;4.01;43.79;102176.72;5019681;28;45348;-62
2023/02/28 03:25:07;;;;;;;;;20.75;18.25;;;;;3.98;43.51;102176.63;5018197;28;45239;-62
2023/02/28 03:28:17;;;;;;;;;21.00;18.75;;;;;3.96;43.55;102179.19;5019689;28;45355;-62
2023/02/28 03:30:58;;;;;;;;;22.75;21.75;;;;;3.92;43.81;102176.41;4997354;28;45239;-63
2023/02/28 03:33:29;;;;;;;;;18.25;17.00;;;;;3.92;43.92;102176.41;5018302;28;45333;-62
2023/02/28 03:36:09;;;;;;;;;22.50;18.75;;;;;3.89;43.82;102172.84;5019618;28;45288;-62
2023/02/28 03:38:44;;;;;;;;;21.50;19.50;;;;;3.85;43.59;102173.56;5017108;28;45821;-62
2023/02/28 03:41:18;;;;;;;;;24.25;21.00;;;;;3.86;43.91;102177.94;5014210;27;45419;-62
2023/02/28 03:43:53;;;;;;;;;21.75;18.50;;;;;3.84;43.96;102174.41;5012148;28;45320;-62
2023/02/28 03:46:23;;;;;;;;;25.50;22.75;;;;;3.85;44.01;102177.88;5019419;28;45255;-62
2023/02/28 03:49:00;;;;;;;;;21.50;16.75;;;;;3.83;44.14;102179.56;5017913;28;45275;-62
2023/02/28 03:51:29;;;;;;;;;25.00;19.00;;;;;3.78;44.02;102165.50;5018101;28;47218;-62
2023/02/28 03:54:01;;;;;;;;;22.75;19.50;;;;;3.79;43.62;102180.28;5018879;28;45326;-62
2023/02/28 03:56:34;;;;;;;;;20.50;16.75;;;;;3.76;43.93;102180.16;5019372;28;45516;-62
2023/02/28 03:59:15;;;;;;;;;19.75;17.75;;;;;3.74;43.80;102174.91;5018988;28;45234;-62
2023/02/28 04:01:48;;;;;;;;;14.25;13.50;;;;;3.71;43.79;102180.88;5019173;28;46097;-62
2023/02/28 04:04:15;;;;;;;;;17.00;15.75;;;;;3.70;43.93;102183.41;5019312;28;45314;-62
2023/02/28 04:06:41;;;;;;;;;22.50;18.75;;;;;3.68;43.96;102180.75;5018927;28;45268;-62
2023/02/28 04:09:10;;;;;;;;;20.00;19.25;;;;;3.65;43.79;102185.84;5019026;28;45631;-62
2023/02/28 04:11:56;;;;;;;;;17.25;13.25;;;;;3.65;43.75;102179.75;5018956;28;45338;-62
2023/02/28 04:14:21;;;;;;;;;16.75;14.75;;;;;3.63;44.11;102181.41;5016218;28;45239;-62
2023/02/28 04:16:47;;;;;;;;;23.25;19.00;;;;;3.61;43.97;102183.06;5003539;28;45446;-62
2023/02/28 04:19:14;;;;;;;;;19.25;17.00;;;;;3.60;43.67;102183.88;5018393;28;45470;-62
2023/02/28 04:21:41;;;;;;;;;17.75;16.00;;;;;3.59;44.10;102193.41;5017646;28;45431;-61
2023/02/28 04:24:08;;;;;;;;;15.50;10.75;;;;;3.56;43.68;102194.19;5018881;28;45416;-61
2023/02/28 04:26:36;;;;;;;;;18.75;17.00;;;;;3.53;43.51;102183.66;5017686;28;45204;-61
2023/02/28 04:29:04;;;;;;;;;18.00;14.50;;;;;3.54;44.16;102193.22;5019073;28;45459;-61
2023/02/28 04:31:29;;;;;;;;;18.25;16.75;;;;;3.50;43.75;102191.34;5018754;28;45335;-61
2023/02/28 04:33:55;;;;;;;;;18.00;16.25;;;;;3.51;44.20;102198.31;5018831;28;45252;-61
2023/02/28 04:36:20;;;;;;;;;19.00;17.25;;;;;3.52;43.75;102196.59;5018729;28;45294;-62
2023/02/28 04:38:46;;;;;;;;;18.50;17.00;;;;;3.49;43.88;102196.50;5018455;28;45309;-61
2023/02/28 04:41:12;;;;;;;;;17.50;16.00;;;;;3.50;43.69;102208.66;5012083;27;47246;-62
2023/02/28 04:43:38;;;;;;;;;22.50;21.25;;;;;3.47;44.30;102213.72;5010903;28;45320;-62
2023/02/28 04:46:04;;;;;;;;;18.00;15.75;;;;;3.47;43.89;102214.63;5017377;28;45213;-62
2023/02/28 04:48:33;;;;;;;;;15.50;15.50;;;;;3.46;44.38;102214.56;5017214;28;45269;-62
2023/02/28 04:51:09;;;;;;;;;22.50;19.00;;;;;3.44;44.19;102214.50;5018412;28;45318;-62
2023/02/28 04:53:36;;;;;;;;;17.25;16.25;;;;;3.42;44.19;102217.03;5018257;28;45460;-62
2023/02/28 04:56:02;;;;;;;;;20.00;17.50;;;;;3.42;43.98;102216.13;5017367;28;45367;-62
2023/02/28 04:58:27;;;;;;;;;19.75;18.25;;;;;3.39;44.50;102210.84;5018340;28;45201;-62
2023/02/28 05:00:54;;;;;;;;;18.00;14.25;;;;;3.39;44.32;102216.91;5018595;28;46002;-62
2023/02/28 05:03:21;;;;;;;;;21.00;18.75;;;;;3.40;44.47;102223.00;5018301;28;45328;-61
2023/02/28 05:05:47;;;;;;;;;17.25;16.25;;;;;3.38;44.36;102216.84;5018579;28;45439;-62
2023/02/28 05:08:13;;;;;;;;;21.75;17.00;;;;;3.37;44.21;102215.97;5033435;28;45434;-61
2023/02/28 05:10:39;;;;;;;;;15.00;15.00;;;;;3.36;44.18;102226.31;5016943;28;46062;-62
2023/02/28 05:13:04;;;;;;;;;19.00;16.25;;;;;3.34;43.81;102213.25;5033581;28;45359;-61
2023/02/28 05:15:29;;;;;;;;;18.50;16.50;;;;;3.35;44.38;102230.63;5006542;28;45477;-61
2023/02/28 05:17:55;;;;;;;;;13.25;12.50;;;;;3.32;44.42;102219.22;5012284;28;45436;-61
2023/02/28 05:20:20;;;;;;;;;17.25;16.75;;;;;3.34;44.08;102227.97;5018044;28;46149;-61
2023/02/28 05:22:46;;;;;;;;;15.50;14.50;;;;;3.32;44.31;102230.50;5017791;28;45260;-61
2023/02/28 05:25:15;;;;;;;;;17.50;15.25;;;;;3.30;44.56;102228.69;5018274;28;45480;-62
2023/02/28 05:27:41;;;;;;;;;19.50;16.50;;;;;3.32;43.91;102234.81;5018253;28;45253;-62
2023/02/28 05:30:10;;;;;;;;;16.75;16.75;;;;;3.28;44.28;102236.38;5018182;28;45646;-62
2023/02/28 05:32:36;;;;;;;;;13.25;13.00;;;;;3.30;44.15;102237.34;5017837;28;45318;-62
2023/02/28 05:35:01;;;;;;;;;16.25;16.25;;;;;3.28;44.41;102239.00;5018347;28;45441;-61
2023/02/28 05:37:26;;;;;;;;;20.50;17.50;;;;;3.28;44.35;102243.31;5032364;28;45433;-61
2023/02/28 05:39:52;;;;;;;;;16.00;15.25;;;;;3.22;44.42;102239.66;5017730;28;46192;-62
2023/02/28 05:42:17;;;;;;;;;16.75;16.00;;;;;3.27;44.30;102241.53;5004765;27;45314;-61
2023/02/28 05:44:42;;;;;;;;;21.00;15.00;;;;;3.26;44.46;102245.84;5018164;28;45217;-61
2023/02/28 05:47:08;;;;;;;;;19.50;19.50;;;;;3.24;43.94;102245.78;5016384;28;45518;-61
2023/02/28 05:49:34;;;;;;;;;17.75;16.00;;;;;3.23;44.09;102238.81;5017751;28;45403;-61
2023/02/28 05:51:59;;;;;;;;;16.75;16.75;;;;;3.22;44.40;102238.75;5017482;28;45238;-64
2023/02/28 05:54:25;;;;;;;;;16.75;16.75;;;;;3.19;44.27;102233.44;5018287;28;45295;-61
2023/02/28 05:56:50;;;;;;;;;17.25;17.25;;;;;3.22;44.59;102243.94;5017693;28;45164;-61
2023/02/28 05:59:15;;;;;;;;;20.00;16.00;;;;;3.18;44.21;102242.97;5017821;28;45222;-61
2023/02/28 06:01:47;;;;;;;;;15.00;14.75;;;;;3.15;44.57;102242.81;5017671;28;45234;-61
2023/02/28 06:04:17;;;;;;;;;22.25;17.00;;;;;3.17;44.51;102250.66;5018034;28;45286;-61
2023/02/28 06:06:44;;;;;;;;;15.75;12.50;;;;;3.16;44.02;102247.19;5016473;28;45551;-61
2023/02/28 06:09:10;;;;;;;;;20.25;18.50;;;;;3.15;44.33;102250.59;5017507;28;47087;-61
2023/02/28 06:11:36;;;;;;;;;20.00;17.00;;;;;3.10;44.30;102241.75;5017499;28;45403;-61
2023/02/28 06:14:02;;;;;;;;;19.00;17.75;;;;;3.15;44.19;102260.13;5017790;28;45271;-62
2023/02/28 06:16:30;;;;;;;;;21.75;21.25;;;;;3.15;44.37;102252.34;5009676;28;45514;-62
2023/02/28 06:18:58;;;;;;;;;21.25;17.25;;;;;3.13;44.48;102262.63;5017443;28;46519;-65
2023/02/28 06:21:24;;;;;;;;;24.25;18.50;;;;;3.11;44.17;102255.59;5017324;28;45295;-62
2023/02/28 06:23:50;;;;;;;;;21.00;18.25;;;;;3.06;44.58;102247.66;5017249;28;45412;-62
2023/02/28 06:26:15;;;;;;;;;21.25;18.75;;;;;3.08;44.45;102256.38;5015995;28;45406;-61
2023/02/28 06:28:40;;;;;;;;;27.25;23.50;;;;;3.10;44.60;102252.13;5017257;28;47070;-61
2023/02/28 06:31:11;;;;;;;;;25.75;23.00;;;;;3.10;44.00;102252.13;5016182;28;45405;-61
2023/02/28 06:33:38;;;;;;;;;27.50;24.75;;;;;3.12;44.41;102258.28;5016102;28;45436;-62
2023/02/28 06:36:04;;;;;;;;;30.25;25.00;;;;;3.08;44.63;102249.47;5017208;28;45493;-61
2023/02/28 06:38:30;;;;;;;;;25.75;21.75;;;;;3.12;44.68;102260.91;5016850;28;46367;-61
2023/02/28 06:40:58;;;;;;;;;33.75;29.00;;;;;3.13;44.22;102269.56;5013827;27;45440;-61
2023/02/28 06:43:24;;;;;;;;;31.75;26.25;;;;;3.12;44.20;102267.78;5016047;28;45239;-61
2023/02/28 06:45:53;;;;;;;;;32.50;23.50;;;;;3.12;44.67;102262.59;5016660;28;45196;-61
2023/02/28 06:48:18;;;;;;;;;25.75;22.50;;;;;3.08;44.32;102259.88;5016831;28;46109;-61
2023/02/28 06:50:44;;;;;;;;;29.00;26.00;;;;;3.10;44.48;102259.94;5016825;28;45432;-61
2023/02/28 06:53:09;;;;;;;;;29.50;28.00;;;;;3.09;44.86;102255.56;5016934;28;45438;-61
2023/02/28 06:55:37;;;;;;;;;35.75;30.75;;;;;3.09;44.63;102268.53;5016716;28;45276;-62
2023/02/28 06:58:03;;;;;;;;;30.00;28.75;;;;;3.08;44.46;102264.16;5016781;28;46359;-61
2023/02/28 07:00:28;;;;;;;;;31.00;28.50;;;;;3.03;44.58;102258.81;5016952;28;45157;-61
2023/02/28 07:02:54;;;;;;;;;32.50;28.25;;;;;3.05;44.93;102262.31;5015846;28;45467;-61
2023/02/28 07:05:20;;;;;;;;;30.25;26.75;;;;;3.05;45.03;102272.72;5016767;28;45231;-61
2023/02/28 07:07:46;;;;;;;;;31.50;30.50;;;;;3.04;45.01;102264.88;5015317;28;46079;-61
2023/02/28 07:10:13;;;;;;;;;35.75;32.25;;;;;3.06;44.70;102274.50;5015378;28;45479;-61
2023/02/28 07:12:38;;;;;;;;;40.00;32.75;;;;;3.06;45.00;102271.03;5016866;28;45486;-61
2023/02/28 07:15:05;;;;;;;;;34.75;31.50;;;;;3.06;44.61;102274.50;5008143;28;45484;-62
2023/02/28 07:17:31;;;;;;;;;31.50;26.00;;;;;3.04;45.18;102270.06;5007626;28;45422;-61
2023/02/28 07:19:56;;;;;;;;;37.50;31.50;;;;;3.05;45.17;102274.44;5016468;28;45413;-62
2023/02/28 07:22:22;;;;;;;;;33.00;30.00;;;;;3.05;44.60;102271.84;5016521;28;45697;-62
2023/02/28 07:24:47;;;;;;;;;34.50;31.50;;;;;3.06;44.80;102273.63;5016417;28;45160;-63
2023/02/28 07:27:25;;;;;;;;;35.25;33.25;;;;;3.04;45.06;102270.06;5031731;28;46330;-62
2023/02/28 07:29:51;;;;;;;;;40.50;35.75;;;;;3.04;44.97;102273.53;5016400;28;45337;-62
2023/02/28 07:32:18;;;;;;;;;37.00;34.00;;;;;3.07;44.67;102280.59;5015362;28;45409;-62
2023/02/28 07:34:43;;;;;;;;;34.50;30.75;;;;;3.07;44.91;102278.00;5016267;28;45272;-62
2023/02/28 07:37:09;;;;;;;;;43.00;37.00;;;;;3.09;44.87;102285.03;5016032;28;45478;-62
2023/02/28 07:39:34;;;;;;;;;42.25;37.25;;;;;3.12;44.96;102291.16;5015920;28;45320;-62
2023/02/28 07:41:59;;;;;;;;;37.50;33.50;;;;;3.09;44.78;102281.53;5004698;27;45247;-62
2023/02/28 07:44:26;;;;;;;;;40.75;35.00;;;;;3.09;44.83;102281.53;5014527;28;45456;-62
2023/02/28 07:46:52;;;;;;;;;40.75;36.75;;;;;3.15;45.12;102286.09;5014769;27;48336;-64
2023/02/28 07:49:18;;;;;;;;;28.00;28.00;;;;;3.15;44.61;102289.59;5015929;28;45226;-62
2023/02/28 07:51:43;;;;;;;;;37.50;34.25;;;;;3.17;45.52;102289.63;5016130;28;45329;-62
2023/02/28 07:54:08;;;;;;;;;41.75;36.50;;;;;3.16;45.22;102291.34;5014626;28;45432;-62
2023/02/28 07:56:34;;;;;;;;;31.25;27.25;;;;;3.16;45.28;102283.56;5016161;28;45297;-63
2023/02/28 07:58:59;;;;;;;;;44.25;32.25;;;;;3.19;45.26;102288.88;5019152;28;45408;-62
2023/02/28 08:01:24;;;;;;;;;52.50;40.00;;;;;3.23;45.30;102295.09;5019217;28;45232;-63
2023/02/28 08:03:50;;;;;;;;;57.75;46.50;;;;;3.22;45.22;102291.63;5019129;28;45212;-63
2023/02/28 08:06:22;;;;;;;;;45.50;38.00;;;;;3.25;45.38;102293.44;5019048;28;45217;-62
2023/02/28 08:08:48;;;;;;;;;40.75;36.25;;;;;3.17;45.66;102267.16;5051103;28;45486;-62
2023/02/28 08:11:13;;;;;;;;;44.75;39.50;;;;;3.30;45.54;102293.66;5019067;28;45361;-63
2023/02/28 08:13:39;;;;;;;;;51.50;41.50;;;;;3.33;45.41;102301.56;5018953;28;45466;-62
2023/02/28 08:16:04;;;;;;;;;41.00;37.00;;;;;3.33;45.50;102288.56;5000914;28;46078;-63
2023/02/28 08:18:32;;;;;;;;;40.75;36.75;;;;;3.30;45.20;102284.13;5018056;28;45306;-63
2023/02/28 08:20:57;;;;;;;;;47.25;38.50;;;;;3.40;45.37;102298.38;5034283;28;45473;-63
2023/02/28 08:23:22;;;;;;;;;45.75;37.75;;;;;3.42;45.32;102289.81;5018598;28;45323;-63
2023/02/28 08:25:55;;;;;;;;;32.75;32.25;;;;;3.45;45.56;102290.75;5018657;28;45297;-62
2023/02/28 08:28:21;;;;;;;;;39.00;36.00;;;;;3.46;45.62;102293.44;5019012;28;45160;-63
2023/02/28 08:30:47;;;;;;;;;46.00;37.00;;;;;3.51;45.66;102294.50;5018786;28;45392;-63
2023/02/28 08:33:12;;;;;;;;;40.25;37.00;;;;;3.57;45.72;102299.03;5017464;28;45316;-63
2023/02/28 08:35:37;;;;;;;;;38.25;37.25;;;;;3.52;45.74;102291.09;5018651;28;46085;-63
2023/02/28 08:38:03;;;;;;;;;45.50;39.00;;;;;3.65;45.42;102307.13;5018515;28;45263;-63
2023/02/28 08:40:28;;;;;;;;;46.25;39.25;;;;;3.67;45.38;102300.28;5033999;28;45397;-63
2023/02/28 08:42:53;;;;;;;;;40.50;37.00;;;;;3.76;46.05;102308.47;5037079;27;45314;-62
2023/02/28 08:45:19;;;;;;;;;30.75;30.00;;;;;3.83;45.88;102315.66;5017294;28;47383;-63
2023/02/28 08:47:44;;;;;;;;;42.25;37.00;;;;;3.87;45.87;102316.69;5018434;28;45321;-63
2023/02/28 08:50:10;;;;;;;;;39.00;35.00;;;;;3.92;45.61;102309.06;5018617;28;45354;-63
2023/02/28 08:52:35;;;;;;;;;40.00;35.75;;;;;3.96;45.88;102303.13;5018213;28;45317;-63
2023/02/28 08:55:00;;;;;;;;;43.25;36.75;;;;;4.03;45.62;102302.53;5018294;28;45391;-62
2023/02/28 08:57:26;;;;;;;;;37.75;36.25;;;;;4.09;45.91;102305.38;5018326;28;45408;-62
2023/02/28 08:59:52;;;;;;;;;47.50;37.50;;;;;4.19;46.01;102299.69;5018445;28;45266;-63
2023/02/28 09:02:18;;;;;;;;;49.75;38.75;;;;;4.27;45.89;102310.38;5017096;28;45357;-62
2023/02/28 09:04:47;;;;;;;;;37.00;34.00;;;;;4.34;45.98;102306.28;5018296;28;45536;-62
2023/02/28 09:07:12;;;;;;;;;37.50;35.50;;;;;4.38;45.54;102302.97;5017883;28;45415;-62
2023/02/28 09:09:53;;;;;;;;;41.00;37.00;;;;;4.49;45.79;102305.94;5050191;28;45470;-62
2023/02/28 09:12:27;;;;;;;;;33.50;32.50;;;;;4.56;46.02;102302.72;5018567;28;45219;-62
2023/02/28 09:14:53;;;;;;;;;36.25;33.75;;;;;4.68;46.09;102318.78;5011026;28;45447;-63
2023/02/28 09:17:19;;;;;;;;;40.25;33.50;;;;;4.75;46.12;102304.25;5006981;28;45313;-62
2023/02/28 09:19:47;;;;;;;;;32.50;30.25;;;;;4.87;45.91;102311.63;5018094;28;45434;-62
2023/02/28 09:22:12;;;;;;;;;32.75;29.50;;;;;4.96;45.93;102319.75;5018107;28;45491;-62
2023/02/28 09:24:38;;;;;;;;;33.25;29.75;;;;;5.07;45.83;102320.13;5017614;28;45921;-62
2023/02/28 09:27:04;;;;;;;;;37.50;32.50;;;;;5.16;46.08;102314.34;5018157;28;45283;-62
2023/02/28 09:29:34;;;;;;;;;30.25;29.75;;;;;5.31;45.91;102312.22;5018195;28;45263;-63
2023/02/28 09:31:59;;;;;;;;;34.25;29.75;;;;;5.43;46.25;102311.72;5018179;28;45391;-62
2023/02/28 09:34:30;;;;;;;;;34.25;29.25;;;;;5.58;46.18;102313.94;5018134;28;45269;-62
2023/02/28 09:36:56;;;;;;;;;34.25;29.50;;;;;5.71;46.24;102304.81;5032928;28;45346;-62
2023/02/28 09:39:22;;;;;;;;;32.75;28.25;;;;;5.80;46.03;102292.03;5017917;28;45336;-63
2023/02/28 09:41:52;;;;;;;;;29.00;22.75;;;;;6.06;46.14;102304.13;5008020;27;45324;-62
2023/02/28 09:44:47;;;;;;;;;34.50;31.25;;;;;6.26;46.32;102302.94;5016653;28;47088;-62
2023/02/28 09:47:40;;;;;;;;;27.25;24.75;;;;;6.43;46.27;102299.97;5012728;28;45381;-62
2023/02/28 09:50:41;;;;;;;;;28.50;26.50;;;;;6.70;46.63;102296.31;5016636;28;45229;-62
2023/02/28 09:53:18;;;;;;;;;26.25;23.50;;;;;6.92;46.71;102293.44;5006120;28;45463;-62
2023/02/28 09:55:51;;;;;;;;;28.75;27.50;;;;;7.12;46.46;102298.28;5017571;28;45336;-62
2023/02/28 09:58:28;;;;;;;;;34.25;28.50;;;;;7.32;46.31;102288.31;5017760;28;45265;-63
2023/02/28 10:01:07;;;;;;;;;31.75;26.75;;;;;7.52;46.57;102288.78;5018110;28;45249;-63
2023/02/28 10:03:40;;;;;;;;;26.00;24.25;;;;;7.69;46.78;102286.53;5017642;28;45371;-63
2023/02/28 10:06:17;;;;;;;;;31.50;27.75;;;;;7.94;46.59;102287.09;5017719;28;45906;-63
2023/02/28 10:08:48;;;;;;;;;31.00;28.50;;;;;8.14;46.53;102284.88;5017498;28;45279;-63
2023/02/28 10:11:17;;;;;;;;;31.00;27.75;;;;;8.36;46.51;102286.19;5017743;28;45232;-63
2023/02/28 10:14:09;;;;;;;;;25.75;22.00;;;;;8.60;46.48;102282.31;5017485;28;45531;-63
2023/02/28 10:16:41;;;;;;;;;31.00;24.50;;;;;8.82;46.46;102275.72;5009463;28;45249;-63
2023/02/28 10:19:21;;;;;;;;;33.50;30.50;;;;;9.05;46.69;102270.00;5016865;28;45475;-63
2023/02/28 10:21:56;;;;;;;;;31.75;27.50;;;;;9.32;46.27;102274.81;5017427;28;45497;-63
2023/02/28 10:24:30;;;;;;;;;29.25;29.00;;;;;9.50;46.20;102263.69;5017402;28;45251;-63
2023/02/28 10:27:18;;;;;;;;;28.25;27.50;;;;;9.74;46.29;102257.91;5017496;28;45495;-63
2023/02/28 10:29:45;;;;;;;;;24.50;22.00;;;;;9.90;46.46;102251.09;5017280;28;45456;-63
2023/02/28 10:32:15;;;;;;;;;23.75;21.00;;;;;10.11;46.03;102264.50;5017686;28;45339;-63
2023/02/28 10:34:40;;;;;;;;;20.50;19.25;;;;;10.23;46.00;102255.00;5017385;28;45397;-63
2023/02/28 10:37:10;;;;;;;;;26.50;25.00;;;;;10.38;45.81;102253.44;5017106;28;45285;-63
2023/02/28 10:39:45;;;;;;;;;33.00;29.25;;;;;10.44;45.92;102243.00;5016857;28;45467;-63
2023/02/28 10:42:28;;;;;;;;;26.25;24.25;;;;;10.61;45.89;102248.41;5004073;27;45445;-63
2023/02/28 10:45:14;;;;;;;;;28.00;25.50;;;;;10.71;45.55;102238.88;5017222;28;45319;-64
2023/02/28 10:47:57;;;;;;;;;31.00;28.50;;;;;10.81;45.48;102238.09;5015689;28;45596;-63
2023/02/28 10:50:39;;;;;;;;;24.25;22.75;;;;;10.88;45.30;102228.50;5016906;28;45419;-63
2023/02/28 10:53:24;;;;;;;;;24.75;21.50;;;;;10.92;45.39;102234.66;5016921;28;45316;-63
2023/02/28 10:56:04;;;;;;;;;22.50;20.00;;;;;10.92;44.98;102226.75;5032190;28;45290;-64
2023/02/28 10:58:32;;;;;;;;;24.75;22.75;;;;;10.94;44.91;102225.91;5016801;28;46152;-64
2023/02/28 11:00:59;;;;;;;;;20.00;18.75;;;;;10.95;44.79;102225.03;5016848;28;45257;-64
2023/02/28 11:03:30;;;;;;;;;20.25;18.25;;;;;10.94;44.62;102223.28;5016857;28;45232;-64
2023/02/28 11:05:56;;;;;;;;;25.25;17.50;;;;;10.92;44.57;102219.78;5015650;28;45333;-64
2023/02/28 11:08:24;;;;;;;;;18.75;18.75;;;;;10.91;44.40;102223.28;5016400;28;45245;-63
2023/02/28 11:11:00;;;;;;;;;17.00;17.00;;;;;10.83;44.47;102214.41;5016678;28;45252;-64
2023/02/28 11:13:31;;;;;;;;;21.75;19.75;;;;;10.84;44.18;102230.25;5016715;28;45230;-63
2023/02/28 11:16:00;;;;;;;;;18.25;17.00;;;;;10.78;43.90;102226.66;5001094;28;45392;-63
2023/02/28 11:18:40;;;;;;;;;16.25;15.00;;;;;10.69;43.93;102220.47;5014004;28;46293;-63
2023/02/28 11:21:07;;;;;;;;;21.75;17.75;;;;;10.57;43.92;102209.84;5016633;28;45520;-63
2023/02/28 11:23:37;;;;;;;;;18.25;17.50;;;;;10.50;43.85;102208.00;5016511;28;45519;-63
2023/02/28 11:26:04;;;;;;;;;15.00;15.00;;;;;10.47;43.69;102222.00;5016330;28;45422;-63
2023/02/28 11:28:38;;;;;;;;;20.25;16.00;;;;;10.39;43.54;102211.41;5016366;28;46594;-63